sensor_id;sensor_type;location;lat;lon;timestamp;P1;durP1;ratioP1;P2;durP2;ratioP2
3207;SDS011;1616;52.394;9.756;2024-03-02T00:02:14;16.47;;;12.37;;
3207;SDS011;1616;52.394;9.756;2024-03-02T00:04:40;14.23;;;11.70;;
3207;SDS011;1616;52.394;9.756;2024-03-02T00:07:06;15.87;;;12.07;;
3207;SDS011;1616;52.394;9.756;2024-03-02T00:09:32;17.63;;;12.73;;
3207;SDS011;1616;52.394;9.756;2024-03-02T00:11:58;13.70;;;11.37;;
3207;SDS011;1616;52.394;9.756;2024-03-02T00:14:28;13.00;;;11.10;;
3207;SDS011;1616;52.394;9.756;2024-03-02T00:16:55;14.47;;;10.70;;
3207;SDS011;1616;52.394;9.756;2024-03-02T00:19:21;13.33;;;11.40;;
3207;SDS011;1616;52.394;9.756;2024-03-02T00:21:47;17.60;;;11.90;;
3207;SDS011;1616;52.394;9.756;2024-03-02T00:24:34;13.83;;;11.87;;
3207;SDS011;1616;52.394;9.756;2024-03-02T00:27:00;13.47;;;11.60;;
3207;SDS011;1616;52.394;9.756;2024-03-02T00:29:28;12.87;;;11.27;;
3207;SDS011;1616;52.394;9.756;2024-03-02T00:31:54;18.20;;;12.20;;
3207;SDS011;1616;52.394;9.756;2024-03-02T00:34:21;16.97;;;11.73;;
3207;SDS011;1616;52.394;9.756;2024-03-02T00:36:47;19.17;;;12.30;;
3207;SDS011;1616;52.394;9.756;2024-03-02T00:39:14;15.63;;;12.30;;
3207;SDS011;1616;52.394;9.756;2024-03-02T00:41:42;13.63;;;12.10;;
3207;SDS011;1616;52.394;9.756;2024-03-02T00:44:09;13.37;;;11.80;;
3207;SDS011;1616;52.394;9.756;2024-03-02T00:46:38;17.97;;;12.27;;
3207;SDS011;1616;52.394;9.756;2024-03-02T00:49:18;15.57;;;13.03;;
3207;SDS011;1616;52.394;9.756;2024-03-02T00:51:49;17.47;;;12.33;;
3207;SDS011;1616;52.394;9.756;2024-03-02T00:54:19;20.10;;;12.27;;
3207;SDS011;1616;52.394;9.756;2024-03-02T00:56:49;20.73;;;13.60;;
3207;SDS011;1616;52.394;9.756;2024-03-02T00:59:15;16.83;;;12.90;;
3207;SDS011;1616;52.394;9.756;2024-03-02T01:01:41;18.37;;;13.50;;
3207;SDS011;1616;52.394;9.756;2024-03-02T01:04:08;19.13;;;14.60;;
3207;SDS011;1616;52.394;9.756;2024-03-02T01:06:34;17.20;;;13.50;;
3207;SDS011;1616;52.394;9.756;2024-03-02T01:09:00;16.57;;;13.83;;
3207;SDS011;1616;52.394;9.756;2024-03-02T01:11:26;25.03;;;15.80;;
3207;SDS011;1616;52.394;9.756;2024-03-02T01:13:52;16.23;;;13.40;;
3207;SDS011;1616;52.394;9.756;2024-03-02T01:16:18;18.77;;;14.13;;
3207;SDS011;1616;52.394;9.756;2024-03-02T01:18:43;22.00;;;14.00;;
3207;SDS011;1616;52.394;9.756;2024-03-02T01:21:09;19.80;;;14.50;;
3207;SDS011;1616;52.394;9.756;2024-03-02T01:23:35;24.23;;;15.00;;
3207;SDS011;1616;52.394;9.756;2024-03-02T01:26:00;26.00;;;15.20;;
3207;SDS011;1616;52.394;9.756;2024-03-02T01:28:26;16.60;;;13.07;;
3207;SDS011;1616;52.394;9.756;2024-03-02T01:30:52;19.17;;;13.47;;
3207;SDS011;1616;52.394;9.756;2024-03-02T01:33:17;20.17;;;14.33;;
3207;SDS011;1616;52.394;9.756;2024-03-02T01:35:44;26.60;;;16.50;;
3207;SDS011;1616;52.394;9.756;2024-03-02T01:38:10;23.77;;;14.47;;
3207;SDS011;1616;52.394;9.756;2024-03-02T01:40:36;26.43;;;15.07;;
3207;SDS011;1616;52.394;9.756;2024-03-02T01:43:03;21.43;;;14.13;;
3207;SDS011;1616;52.394;9.756;2024-03-02T01:45:29;18.90;;;14.47;;
3207;SDS011;1616;52.394;9.756;2024-03-02T01:47:55;25.00;;;13.73;;
3207;SDS011;1616;52.394;9.756;2024-03-02T01:50:24;21.93;;;15.07;;
3207;SDS011;1616;52.394;9.756;2024-03-02T01:52:51;21.27;;;14.50;;
3207;SDS011;1616;52.394;9.756;2024-03-02T01:55:17;28.73;;;14.70;;
3207;SDS011;1616;52.394;9.756;2024-03-02T01:57:42;25.37;;;14.30;;
3207;SDS011;1616;52.394;9.756;2024-03-02T02:00:10;25.77;;;14.57;;
3207;SDS011;1616;52.394;9.756;2024-03-02T02:02:36;21.07;;;14.30;;
3207;SDS011;1616;52.394;9.756;2024-03-02T02:05:02;22.10;;;14.60;;
3207;SDS011;1616;52.394;9.756;2024-03-02T02:07:28;25.80;;;15.17;;
3207;SDS011;1616;52.394;9.756;2024-03-02T02:09:54;22.43;;;15.07;;
3207;SDS011;1616;52.394;9.756;2024-03-02T02:12:19;25.40;;;16.00;;
3207;SDS011;1616;52.394;9.756;2024-03-02T02:14:48;22.23;;;15.03;;
3207;SDS011;1616;52.394;9.756;2024-03-02T02:17:15;24.97;;;15.70;;
3207;SDS011;1616;52.394;9.756;2024-03-02T02:19:42;25.13;;;15.27;;
3207;SDS011;1616;52.394;9.756;2024-03-02T02:22:09;24.13;;;15.93;;
3207;SDS011;1616;52.394;9.756;2024-03-02T02:24:35;25.97;;;17.00;;
3207;SDS011;1616;52.394;9.756;2024-03-02T02:27:01;24.37;;;15.47;;
3207;SDS011;1616;52.394;9.756;2024-03-02T02:29:26;25.40;;;16.57;;
3207;SDS011;1616;52.394;9.756;2024-03-02T02:31:52;27.70;;;16.33;;
3207;SDS011;1616;52.394;9.756;2024-03-02T02:34:18;25.20;;;16.80;;
3207;SDS011;1616;52.394;9.756;2024-03-02T02:36:44;24.67;;;15.00;;
3207;SDS011;1616;52.394;9.756;2024-03-02T02:39:11;28.10;;;16.93;;
3207;SDS011;1616;52.394;9.756;2024-03-02T02:41:39;21.20;;;14.30;;
3207;SDS011;1616;52.394;9.756;2024-03-02T02:44:05;21.27;;;15.00;;
3207;SDS011;1616;52.394;9.756;2024-03-02T02:46:30;23.57;;;16.23;;
3207;SDS011;1616;52.394;9.756;2024-03-02T02:48:56;28.37;;;17.83;;
3207;SDS011;1616;52.394;9.756;2024-03-02T02:51:22;21.90;;;15.80;;
3207;SDS011;1616;52.394;9.756;2024-03-02T02:53:50;22.60;;;14.97;;
3207;SDS011;1616;52.394;9.756;2024-03-02T02:56:16;32.33;;;17.20;;
3207;SDS011;1616;52.394;9.756;2024-03-02T02:58:42;24.33;;;16.13;;
3207;SDS011;1616;52.394;9.756;2024-03-02T03:01:07;24.97;;;14.20;;
3207;SDS011;1616;52.394;9.756;2024-03-02T03:03:33;28.23;;;16.30;;
3207;SDS011;1616;52.394;9.756;2024-03-02T03:05:59;22.63;;;15.43;;
3207;SDS011;1616;52.394;9.756;2024-03-02T03:08:26;21.83;;;14.53;;
3207;SDS011;1616;52.394;9.756;2024-03-02T03:10:52;22.13;;;15.07;;
3207;SDS011;1616;52.394;9.756;2024-03-02T03:13:17;23.17;;;14.83;;
3207;SDS011;1616;52.394;9.756;2024-03-02T03:15:43;32.20;;;17.27;;
3207;SDS011;1616;52.394;9.756;2024-03-02T03:18:09;24.20;;;14.77;;
3207;SDS011;1616;52.394;9.756;2024-03-02T03:20:35;17.63;;;14.33;;
3207;SDS011;1616;52.394;9.756;2024-03-02T03:23:01;21.30;;;13.30;;
3207;SDS011;1616;52.394;9.756;2024-03-02T03:25:30;27.53;;;15.70;;
3207;SDS011;1616;52.394;9.756;2024-03-02T03:27:56;23.80;;;14.57;;
3207;SDS011;1616;52.394;9.756;2024-03-02T03:30:22;23.67;;;13.70;;
3207;SDS011;1616;52.394;9.756;2024-03-02T03:32:48;24.23;;;14.43;;
3207;SDS011;1616;52.394;9.756;2024-03-02T03:35:13;18.57;;;13.33;;
3207;SDS011;1616;52.394;9.756;2024-03-02T03:37:41;25.90;;;14.40;;
3207;SDS011;1616;52.394;9.756;2024-03-02T03:40:07;19.43;;;13.37;;
3207;SDS011;1616;52.394;9.756;2024-03-02T03:42:36;23.07;;;13.80;;
3207;SDS011;1616;52.394;9.756;2024-03-02T03:45:02;20.20;;;13.47;;
3207;SDS011;1616;52.394;9.756;2024-03-02T03:47:29;21.80;;;13.30;;
3207;SDS011;1616;52.394;9.756;2024-03-02T03:49:56;25.17;;;14.77;;
3207;SDS011;1616;52.394;9.756;2024-03-02T03:52:21;19.80;;;13.67;;
3207;SDS011;1616;52.394;9.756;2024-03-02T03:54:47;32.67;;;14.00;;
3207;SDS011;1616;52.394;9.756;2024-03-02T03:57:12;22.93;;;13.33;;
3207;SDS011;1616;52.394;9.756;2024-03-02T03:59:38;22.50;;;12.53;;
3207;SDS011;1616;52.394;9.756;2024-03-02T04:02:03;24.47;;;13.60;;
3207;SDS011;1616;52.394;9.756;2024-03-02T04:04:29;21.87;;;14.13;;
3207;SDS011;1616;52.394;9.756;2024-03-02T04:06:55;25.10;;;13.17;;
3207;SDS011;1616;52.394;9.756;2024-03-02T04:09:21;25.23;;;14.00;;
3207;SDS011;1616;52.394;9.756;2024-03-02T04:11:47;28.87;;;14.10;;
3207;SDS011;1616;52.394;9.756;2024-03-02T04:14:12;23.17;;;13.83;;
3207;SDS011;1616;52.394;9.756;2024-03-02T04:16:38;23.20;;;14.37;;
3207;SDS011;1616;52.394;9.756;2024-03-02T04:19:04;27.73;;;13.33;;
3207;SDS011;1616;52.394;9.756;2024-03-02T04:21:29;22.17;;;12.90;;
3207;SDS011;1616;52.394;9.756;2024-03-02T04:23:55;22.17;;;12.93;;
3207;SDS011;1616;52.394;9.756;2024-03-02T04:26:23;26.40;;;14.67;;
3207;SDS011;1616;52.394;9.756;2024-03-02T04:28:52;24.30;;;14.70;;
3207;SDS011;1616;52.394;9.756;2024-03-02T04:31:18;21.63;;;14.30;;
3207;SDS011;1616;52.394;9.756;2024-03-02T04:33:44;22.10;;;14.30;;
3207;SDS011;1616;52.394;9.756;2024-03-02T04:36:10;24.67;;;14.30;;
3207;SDS011;1616;52.394;9.756;2024-03-02T04:38:36;22.63;;;14.20;;
3207;SDS011;1616;52.394;9.756;2024-03-02T04:41:03;19.70;;;13.63;;
3207;SDS011;1616;52.394;9.756;2024-03-02T04:43:31;18.60;;;12.17;;
3207;SDS011;1616;52.394;9.756;2024-03-02T04:45:57;23.60;;;13.53;;
3207;SDS011;1616;52.394;9.756;2024-03-02T04:48:23;20.57;;;12.30;;
3207;SDS011;1616;52.394;9.756;2024-03-02T04:50:49;22.50;;;13.17;;
3207;SDS011;1616;52.394;9.756;2024-03-02T04:53:15;23.73;;;13.80;;
3207;SDS011;1616;52.394;9.756;2024-03-02T04:55:41;19.43;;;13.43;;
3207;SDS011;1616;52.394;9.756;2024-03-02T04:58:06;23.97;;;13.80;;
3207;SDS011;1616;52.394;9.756;2024-03-02T05:00:32;24.20;;;13.00;;
3207;SDS011;1616;52.394;9.756;2024-03-02T05:02:59;24.40;;;13.73;;
3207;SDS011;1616;52.394;9.756;2024-03-02T05:05:24;19.10;;;13.93;;
3207;SDS011;1616;52.394;9.756;2024-03-02T05:07:51;23.83;;;15.13;;
3207;SDS011;1616;52.394;9.756;2024-03-02T05:10:17;23.83;;;13.20;;
3207;SDS011;1616;52.394;9.756;2024-03-02T05:12:43;26.67;;;13.90;;
3207;SDS011;1616;52.394;9.756;2024-03-02T05:15:09;21.97;;;13.50;;
3207;SDS011;1616;52.394;9.756;2024-03-02T05:17:36;28.07;;;14.97;;
3207;SDS011;1616;52.394;9.756;2024-03-02T05:20:03;23.97;;;13.87;;
3207;SDS011;1616;52.394;9.756;2024-03-02T05:22:29;26.73;;;16.77;;
3207;SDS011;1616;52.394;9.756;2024-03-02T05:24:55;27.17;;;14.50;;
3207;SDS011;1616;52.394;9.756;2024-03-02T05:27:21;27.20;;;16.37;;
3207;SDS011;1616;52.394;9.756;2024-03-02T05:29:47;30.10;;;15.40;;
3207;SDS011;1616;52.394;9.756;2024-03-02T05:32:13;24.97;;;15.27;;
3207;SDS011;1616;52.394;9.756;2024-03-02T05:34:38;26.83;;;16.90;;
3207;SDS011;1616;52.394;9.756;2024-03-02T05:37:07;28.13;;;17.70;;
3207;SDS011;1616;52.394;9.756;2024-03-02T05:39:32;34.17;;;17.33;;
3207;SDS011;1616;52.394;9.756;2024-03-02T05:41:58;33.77;;;17.00;;
3207;SDS011;1616;52.394;9.756;2024-03-02T05:44:23;29.53;;;17.30;;
3207;SDS011;1616;52.394;9.756;2024-03-02T05:46:49;32.80;;;18.70;;
3207;SDS011;1616;52.394;9.756;2024-03-02T05:49:14;33.47;;;18.07;;
3207;SDS011;1616;52.394;9.756;2024-03-02T05:51:40;36.97;;;17.10;;
3207;SDS011;1616;52.394;9.756;2024-03-02T05:54:07;36.07;;;17.57;;
3207;SDS011;1616;52.394;9.756;2024-03-02T05:56:33;35.87;;;19.30;;
3207;SDS011;1616;52.394;9.756;2024-03-02T05:58:59;33.80;;;17.00;;
3207;SDS011;1616;52.394;9.756;2024-03-02T06:01:44;33.97;;;19.73;;
3207;SDS011;1616;52.394;9.756;2024-03-02T06:04:13;31.80;;;17.60;;
3207;SDS011;1616;52.394;9.756;2024-03-02T06:06:41;33.57;;;18.17;;
3207;SDS011;1616;52.394;9.756;2024-03-02T06:09:07;32.30;;;18.83;;
3207;SDS011;1616;52.394;9.756;2024-03-02T06:11:33;33.23;;;19.27;;
3207;SDS011;1616;52.394;9.756;2024-03-02T06:14:02;34.47;;;18.63;;
3207;SDS011;1616;52.394;9.756;2024-03-02T06:16:28;34.13;;;20.30;;
3207;SDS011;1616;52.394;9.756;2024-03-02T06:18:56;35.10;;;18.77;;
3207;SDS011;1616;52.394;9.756;2024-03-02T06:21:26;36.40;;;19.73;;
3207;SDS011;1616;52.394;9.756;2024-03-02T06:23:52;33.13;;;17.53;;
3207;SDS011;1616;52.394;9.756;2024-03-02T06:26:18;34.53;;;19.30;;
3207;SDS011;1616;52.394;9.756;2024-03-02T06:28:44;35.43;;;19.40;;
3207;SDS011;1616;52.394;9.756;2024-03-02T06:31:10;30.90;;;19.40;;
3207;SDS011;1616;52.394;9.756;2024-03-02T06:33:36;31.17;;;18.00;;
3207;SDS011;1616;52.394;9.756;2024-03-02T06:36:01;38.80;;;20.87;;
3207;SDS011;1616;52.394;9.756;2024-03-02T06:38:27;34.30;;;19.03;;
3207;SDS011;1616;52.394;9.756;2024-03-02T06:40:53;36.50;;;18.70;;
3207;SDS011;1616;52.394;9.756;2024-03-02T06:43:20;32.27;;;18.17;;
3207;SDS011;1616;52.394;9.756;2024-03-02T06:45:49;34.17;;;19.37;;
3207;SDS011;1616;52.394;9.756;2024-03-02T06:48:16;31.17;;;19.17;;
3207;SDS011;1616;52.394;9.756;2024-03-02T06:50:48;34.53;;;19.17;;
3207;SDS011;1616;52.394;9.756;2024-03-02T06:53:15;39.07;;;18.67;;
3207;SDS011;1616;52.394;9.756;2024-03-02T06:55:45;36.43;;;17.90;;
3207;SDS011;1616;52.394;9.756;2024-03-02T06:58:14;26.03;;;17.70;;
3207;SDS011;1616;52.394;9.756;2024-03-02T07:00:42;30.80;;;18.80;;
3207;SDS011;1616;52.394;9.756;2024-03-02T07:03:09;25.37;;;17.43;;
3207;SDS011;1616;52.394;9.756;2024-03-02T07:05:36;31.60;;;18.53;;
3207;SDS011;1616;52.394;9.756;2024-03-02T07:08:01;27.77;;;17.87;;
3207;SDS011;1616;52.394;9.756;2024-03-02T07:10:28;27.07;;;18.30;;
3207;SDS011;1616;52.394;9.756;2024-03-02T07:12:54;25.27;;;16.27;;
3207;SDS011;1616;52.394;9.756;2024-03-02T07:15:19;25.67;;;16.60;;
3207;SDS011;1616;52.394;9.756;2024-03-02T07:18:03;25.20;;;16.63;;
3207;SDS011;1616;52.394;9.756;2024-03-02T07:20:29;27.77;;;16.93;;
3207;SDS011;1616;52.394;9.756;2024-03-02T07:22:55;22.70;;;16.60;;
3207;SDS011;1616;52.394;9.756;2024-03-02T07:25:21;22.20;;;15.97;;
3207;SDS011;1616;52.394;9.756;2024-03-02T07:27:48;26.60;;;16.13;;
3207;SDS011;1616;52.394;9.756;2024-03-02T07:30:14;21.93;;;15.43;;
3207;SDS011;1616;52.394;9.756;2024-03-02T07:32:41;20.53;;;15.90;;
3207;SDS011;1616;52.394;9.756;2024-03-02T07:35:13;20.13;;;15.17;;
3207;SDS011;1616;52.394;9.756;2024-03-02T07:37:39;23.27;;;16.07;;
3207;SDS011;1616;52.394;9.756;2024-03-02T07:40:07;22.30;;;16.00;;
3207;SDS011;1616;52.394;9.756;2024-03-02T07:42:42;26.73;;;15.57;;
3207;SDS011;1616;52.394;9.756;2024-03-02T07:45:07;18.20;;;14.23;;
3207;SDS011;1616;52.394;9.756;2024-03-02T07:47:34;21.10;;;14.90;;
3207;SDS011;1616;52.394;9.756;2024-03-02T07:50:01;19.77;;;15.50;;
3207;SDS011;1616;52.394;9.756;2024-03-02T07:52:28;25.50;;;16.70;;
3207;SDS011;1616;52.394;9.756;2024-03-02T07:54:54;19.43;;;15.77;;
3207;SDS011;1616;52.394;9.756;2024-03-02T07:57:20;20.57;;;15.33;;
3207;SDS011;1616;52.394;9.756;2024-03-02T07:59:47;24.10;;;15.40;;
3207;SDS011;1616;52.394;9.756;2024-03-02T08:02:14;23.37;;;15.77;;
3207;SDS011;1616;52.394;9.756;2024-03-02T08:04:41;17.07;;;14.87;;
3207;SDS011;1616;52.394;9.756;2024-03-02T08:07:06;19.27;;;15.30;;
3207;SDS011;1616;52.394;9.756;2024-03-02T08:09:32;21.10;;;15.47;;
3207;SDS011;1616;52.394;9.756;2024-03-02T08:11:57;18.93;;;15.57;;
3207;SDS011;1616;52.394;9.756;2024-03-02T08:14:23;18.00;;;14.80;;
3207;SDS011;1616;52.394;9.756;2024-03-02T08:16:49;21.23;;;14.50;;
3207;SDS011;1616;52.394;9.756;2024-03-02T08:19:15;16.40;;;14.70;;
3207;SDS011;1616;52.394;9.756;2024-03-02T08:21:42;16.17;;;14.43;;
3207;SDS011;1616;52.394;9.756;2024-03-02T08:24:08;17.60;;;14.97;;
3207;SDS011;1616;52.394;9.756;2024-03-02T08:26:34;17.43;;;15.50;;
3207;SDS011;1616;52.394;9.756;2024-03-02T08:29:00;16.23;;;14.20;;
3207;SDS011;1616;52.394;9.756;2024-03-02T08:31:29;16.30;;;14.70;;
3207;SDS011;1616;52.394;9.756;2024-03-02T08:33:56;17.93;;;16.00;;
3207;SDS011;1616;52.394;9.756;2024-03-02T08:36:25;17.20;;;14.40;;
3207;SDS011;1616;52.394;9.756;2024-03-02T08:38:51;20.87;;;15.47;;
3207;SDS011;1616;52.394;9.756;2024-03-02T08:41:16;22.73;;;15.77;;
3207;SDS011;1616;52.394;9.756;2024-03-02T08:43:43;16.10;;;14.33;;
3207;SDS011;1616;52.394;9.756;2024-03-02T08:46:09;18.33;;;13.00;;
3207;SDS011;1616;52.394;9.756;2024-03-02T08:48:35;22.33;;;15.23;;
3207;SDS011;1616;52.394;9.756;2024-03-02T08:51:00;17.70;;;14.87;;
3207;SDS011;1616;52.394;9.756;2024-03-02T08:53:27;15.90;;;12.67;;
3207;SDS011;1616;52.394;9.756;2024-03-02T08:55:53;16.90;;;14.43;;
3207;SDS011;1616;52.394;9.756;2024-03-02T08:58:20;16.37;;;13.27;;
3207;SDS011;1616;52.394;9.756;2024-03-02T09:00:46;15.87;;;13.13;;
3207;SDS011;1616;52.394;9.756;2024-03-02T09:03:12;14.63;;;13.27;;
3207;SDS011;1616;52.394;9.756;2024-03-02T09:05:38;13.60;;;12.13;;
3207;SDS011;1616;52.394;9.756;2024-03-02T09:08:03;16.60;;;12.30;;
3207;SDS011;1616;52.394;9.756;2024-03-02T09:10:29;15.70;;;12.73;;
3207;SDS011;1616;52.394;9.756;2024-03-02T09:12:55;15.00;;;12.70;;
3207;SDS011;1616;52.394;9.756;2024-03-02T09:15:21;14.03;;;12.53;;
3207;SDS011;1616;52.394;9.756;2024-03-02T09:17:46;15.20;;;12.43;;
3207;SDS011;1616;52.394;9.756;2024-03-02T09:20:12;17.27;;;13.40;;
3207;SDS011;1616;52.394;9.756;2024-03-02T09:22:39;13.60;;;12.03;;
3207;SDS011;1616;52.394;9.756;2024-03-02T09:25:04;15.90;;;12.93;;
3207;SDS011;1616;52.394;9.756;2024-03-02T09:27:37;19.73;;;14.73;;
3207;SDS011;1616;52.394;9.756;2024-03-02T09:30:04;18.20;;;12.33;;
3207;SDS011;1616;52.394;9.756;2024-03-02T09:32:33;15.30;;;12.13;;
3207;SDS011;1616;52.394;9.756;2024-03-02T09:35:00;15.07;;;12.03;;
3207;SDS011;1616;52.394;9.756;2024-03-02T09:37:26;18.60;;;13.50;;
3207;SDS011;1616;52.394;9.756;2024-03-02T09:39:52;17.00;;;12.20;;
3207;SDS011;1616;52.394;9.756;2024-03-02T09:42:18;20.67;;;11.70;;
3207;SDS011;1616;52.394;9.756;2024-03-02T09:44:44;17.30;;;11.97;;
3207;SDS011;1616;52.394;9.756;2024-03-02T09:47:11;15.63;;;12.87;;
3207;SDS011;1616;52.394;9.756;2024-03-02T09:49:37;15.37;;;12.90;;
3207;SDS011;1616;52.394;9.756;2024-03-02T09:52:02;18.00;;;12.43;;
3207;SDS011;1616;52.394;9.756;2024-03-02T09:54:29;14.23;;;11.50;;
3207;SDS011;1616;52.394;9.756;2024-03-02T09:56:55;14.93;;;11.77;;
3207;SDS011;1616;52.394;9.756;2024-03-02T09:59:21;13.97;;;12.43;;
3207;SDS011;1616;52.394;9.756;2024-03-02T10:01:59;13.57;;;12.17;;
3207;SDS011;1616;52.394;9.756;2024-03-02T10:04:26;12.43;;;11.13;;
3207;SDS011;1616;52.394;9.756;2024-03-02T10:07:08;13.70;;;11.70;;
3207;SDS011;1616;52.394;9.756;2024-03-02T10:09:34;24.90;;;11.50;;
3207;SDS011;1616;52.394;9.756;2024-03-02T10:12:09;14.63;;;11.40;;
3207;SDS011;1616;52.394;9.756;2024-03-02T10:14:36;15.60;;;11.20;;
3207;SDS011;1616;52.394;9.756;2024-03-02T10:17:07;14.00;;;11.00;;
3207;SDS011;1616;52.394;9.756;2024-03-02T10:19:37;12.00;;;10.80;;
3207;SDS011;1616;52.394;9.756;2024-03-02T10:22:07;16.00;;;10.60;;
3207;SDS011;1616;52.394;9.756;2024-03-02T10:24:40;13.70;;;11.27;;
3207;SDS011;1616;52.394;9.756;2024-03-02T10:30:05;16.03;;;11.47;;
3207;SDS011;1616;52.394;9.756;2024-03-02T10:32:31;13.63;;;11.30;;
3207;SDS011;1616;52.394;9.756;2024-03-02T10:34:57;11.40;;;9.87;;
3207;SDS011;1616;52.394;9.756;2024-03-02T10:37:23;13.43;;;11.20;;
3207;SDS011;1616;52.394;9.756;2024-03-02T10:39:49;15.53;;;12.17;;
3207;SDS011;1616;52.394;9.756;2024-03-02T10:42:14;12.20;;;10.80;;
3207;SDS011;1616;52.394;9.756;2024-03-02T10:44:41;12.93;;;11.60;;
3207;SDS011;1616;52.394;9.756;2024-03-02T10:47:08;13.10;;;11.80;;
3207;SDS011;1616;52.394;9.756;2024-03-02T10:49:37;13.97;;;12.53;;
3207;SDS011;1616;52.394;9.756;2024-03-02T10:52:06;11.20;;;10.10;;
3207;SDS011;1616;52.394;9.756;2024-03-02T10:54:34;11.03;;;10.13;;
3207;SDS011;1616;52.394;9.756;2024-03-02T10:57:02;11.30;;;10.17;;
3207;SDS011;1616;52.394;9.756;2024-03-02T10:59:33;9.80;;;8.90;;
3207;SDS011;1616;52.394;9.756;2024-03-02T11:02:01;9.27;;;8.43;;
3207;SDS011;1616;52.394;9.756;2024-03-02T11:04:29;9.07;;;8.27;;
3207;SDS011;1616;52.394;9.756;2024-03-02T11:09:25;10.00;;;9.20;;
3207;SDS011;1616;52.394;9.756;2024-03-02T11:12:35;9.10;;;8.40;;
3207;SDS011;1616;52.394;9.756;2024-03-02T11:14:47;8.47;;;7.57;;
3207;SDS011;1616;52.394;9.756;2024-03-02T11:17:15;7.70;;;7.20;;
3207;SDS011;1616;52.394;9.756;2024-03-02T11:19:42;8.20;;;7.50;;
3207;SDS011;1616;52.394;9.756;2024-03-02T11:22:10;8.53;;;7.73;;
3207;SDS011;1616;52.394;9.756;2024-03-02T11:24:37;7.40;;;6.80;;
3207;SDS011;1616;52.394;9.756;2024-03-02T11:27:04;9.40;;;7.70;;
3207;SDS011;1616;52.394;9.756;2024-03-02T11:32:04;13.73;;;7.53;;
3207;SDS011;1616;52.394;9.756;2024-03-02T11:34:32;8.33;;;7.53;;
3207;SDS011;1616;52.394;9.756;2024-03-02T11:37:01;7.20;;;6.70;;
3207;SDS011;1616;52.394;9.756;2024-03-02T11:39:28;7.33;;;6.70;;
3207;SDS011;1616;52.394;9.756;2024-03-02T11:41:57;7.03;;;6.43;;
3207;SDS011;1616;52.394;9.756;2024-03-02T11:44:26;7.70;;;6.47;;
3207;SDS011;1616;52.394;9.756;2024-03-02T11:46:58;6.77;;;6.27;;
3207;SDS011;1616;52.394;9.756;2024-03-02T11:52:13;7.17;;;6.47;;
3207;SDS011;1616;52.394;9.756;2024-03-02T11:54:41;6.20;;;5.70;;
3207;SDS011;1616;52.394;9.756;2024-03-02T11:57:15;6.67;;;4.80;;
3207;SDS011;1616;52.394;9.756;2024-03-02T11:59:42;6.50;;;5.00;;
3207;SDS011;1616;52.394;9.756;2024-03-02T12:02:18;6.00;;;5.60;;
3207;SDS011;1616;52.394;9.756;2024-03-02T12:04:45;4.97;;;4.50;;
3207;SDS011;1616;52.394;9.756;2024-03-02T12:07:13;5.97;;;5.47;;
3207;SDS011;1616;52.394;9.756;2024-03-02T12:09:47;4.60;;;4.30;;
3207;SDS011;1616;52.394;9.756;2024-03-02T12:12:15;6.67;;;4.77;;
3207;SDS011;1616;52.394;9.756;2024-03-02T12:14:50;6.27;;;5.67;;
3207;SDS011;1616;52.394;9.756;2024-03-02T12:17:18;5.50;;;5.03;;
3207;SDS011;1616;52.394;9.756;2024-03-02T12:19:44;5.77;;;5.27;;
3207;SDS011;1616;52.394;9.756;2024-03-02T12:22:11;4.10;;;3.80;;
3207;SDS011;1616;52.394;9.756;2024-03-02T12:24:36;4.40;;;3.90;;
3207;SDS011;1616;52.394;9.756;2024-03-02T12:27:02;4.50;;;4.20;;
3207;SDS011;1616;52.394;9.756;2024-03-02T12:29:29;3.90;;;3.53;;
3207;SDS011;1616;52.394;9.756;2024-03-02T12:31:55;4.20;;;3.90;;
3207;SDS011;1616;52.394;9.756;2024-03-02T12:34:21;3.67;;;3.37;;
3207;SDS011;1616;52.394;9.756;2024-03-02T12:36:48;5.77;;;3.70;;
3207;SDS011;1616;52.394;9.756;2024-03-02T12:39:17;4.40;;;3.60;;
3207;SDS011;1616;52.394;9.756;2024-03-02T12:41:43;3.57;;;3.27;;
3207;SDS011;1616;52.394;9.756;2024-03-02T12:44:08;3.67;;;3.47;;
3207;SDS011;1616;52.394;9.756;2024-03-02T12:46:34;3.77;;;3.47;;
3207;SDS011;1616;52.394;9.756;2024-03-02T12:49:08;3.50;;;3.20;;
3207;SDS011;1616;52.394;9.756;2024-03-02T12:51:37;4.17;;;3.20;;
3207;SDS011;1616;52.394;9.756;2024-03-02T12:54:14;2.40;;;2.20;;
3207;SDS011;1616;52.394;9.756;2024-03-02T12:56:42;4.40;;;2.77;;
3207;SDS011;1616;52.394;9.756;2024-03-02T12:59:18;2.97;;;2.77;;
3207;SDS011;1616;52.394;9.756;2024-03-02T13:01:50;4.40;;;4.10;;
3207;SDS011;1616;52.394;9.756;2024-03-02T13:04:17;3.30;;;2.47;;
3207;SDS011;1616;52.394;9.756;2024-03-02T13:06:46;2.80;;;2.60;;
3207;SDS011;1616;52.394;9.756;2024-03-02T13:09:12;3.40;;;3.10;;
3207;SDS011;1616;52.394;9.756;2024-03-02T13:11:40;3.83;;;3.00;;
3207;SDS011;1616;52.394;9.756;2024-03-02T13:14:06;2.60;;;2.40;;
3207;SDS011;1616;52.394;9.756;2024-03-02T13:16:32;2.50;;;2.30;;
3207;SDS011;1616;52.394;9.756;2024-03-02T13:19:12;2.33;;;2.13;;
3207;SDS011;1616;52.394;9.756;2024-03-02T13:21:38;2.93;;;2.73;;
3207;SDS011;1616;52.394;9.756;2024-03-02T13:24:04;2.10;;;1.90;;
3207;SDS011;1616;52.394;9.756;2024-03-02T13:26:31;4.07;;;2.43;;
3207;SDS011;1616;52.394;9.756;2024-03-02T13:28:58;2.20;;;2.00;;
3207;SDS011;1616;52.394;9.756;2024-03-02T13:31:24;1.77;;;1.67;;
3207;SDS011;1616;52.394;9.756;2024-03-02T13:33:49;2.27;;;1.60;;
3207;SDS011;1616;52.394;9.756;2024-03-02T13:36:15;1.50;;;1.30;;
3207;SDS011;1616;52.394;9.756;2024-03-02T13:38:43;2.90;;;1.80;;
3207;SDS011;1616;52.394;9.756;2024-03-02T13:41:09;2.77;;;1.80;;
3207;SDS011;1616;52.394;9.756;2024-03-02T13:43:36;2.60;;;1.50;;
3207;SDS011;1616;52.394;9.756;2024-03-02T13:46:04;5.50;;;1.57;;
3207;SDS011;1616;52.394;9.756;2024-03-02T13:48:30;1.93;;;1.70;;
3207;SDS011;1616;52.394;9.756;2024-03-02T13:50:57;2.53;;;1.70;;
3207;SDS011;1616;52.394;9.756;2024-03-02T13:53:23;1.50;;;1.40;;
3207;SDS011;1616;52.394;9.756;2024-03-02T13:55:49;1.70;;;1.60;;
3207;SDS011;1616;52.394;9.756;2024-03-02T13:58:16;1.73;;;1.60;;
3207;SDS011;1616;52.394;9.756;2024-03-02T14:00:43;1.90;;;1.70;;
3207;SDS011;1616;52.394;9.756;2024-03-02T14:03:10;1.40;;;1.30;;
3207;SDS011;1616;52.394;9.756;2024-03-02T14:05:36;2.40;;;2.10;;
3207;SDS011;1616;52.394;9.756;2024-03-02T14:08:02;2.60;;;1.80;;
3207;SDS011;1616;52.394;9.756;2024-03-02T14:10:29;2.27;;;1.60;;
3207;SDS011;1616;52.394;9.756;2024-03-02T14:12:54;2.33;;;1.83;;
3207;SDS011;1616;52.394;9.756;2024-03-02T14:15:20;1.97;;;1.87;;
3207;SDS011;1616;52.394;9.756;2024-03-02T14:17:47;1.80;;;1.70;;
3207;SDS011;1616;52.394;9.756;2024-03-02T14:20:13;2.80;;;2.30;;
3207;SDS011;1616;52.394;9.756;2024-03-02T14:22:39;2.60;;;2.00;;
3207;SDS011;1616;52.394;9.756;2024-03-02T14:25:05;2.07;;;1.87;;
3207;SDS011;1616;52.394;9.756;2024-03-02T14:27:31;3.00;;;2.80;;
3207;SDS011;1616;52.394;9.756;2024-03-02T14:29:57;2.63;;;2.43;;
3207;SDS011;1616;52.394;9.756;2024-03-02T14:32:23;2.00;;;1.80;;
3207;SDS011;1616;52.394;9.756;2024-03-02T14:34:49;2.60;;;1.80;;
3207;SDS011;1616;52.394;9.756;2024-03-02T14:37:15;2.20;;;2.00;;
3207;SDS011;1616;52.394;9.756;2024-03-02T14:39:40;2.60;;;2.20;;
3207;SDS011;1616;52.394;9.756;2024-03-02T14:42:06;2.10;;;1.90;;
3207;SDS011;1616;52.394;9.756;2024-03-02T14:44:32;3.03;;;2.83;;
3207;SDS011;1616;52.394;9.756;2024-03-02T14:47:01;2.50;;;2.30;;
3207;SDS011;1616;52.394;9.756;2024-03-02T14:49:29;2.23;;;2.03;;
3207;SDS011;1616;52.394;9.756;2024-03-02T14:51:56;2.37;;;1.87;;
3207;SDS011;1616;52.394;9.756;2024-03-02T14:54:21;2.43;;;2.23;;
3207;SDS011;1616;52.394;9.756;2024-03-02T14:56:47;2.97;;;1.93;;
3207;SDS011;1616;52.394;9.756;2024-03-02T14:59:13;2.63;;;2.43;;
3207;SDS011;1616;52.394;9.756;2024-03-02T15:01:38;2.73;;;2.53;;
3207;SDS011;1616;52.394;9.756;2024-03-02T15:04:04;2.50;;;2.30;;
3207;SDS011;1616;52.394;9.756;2024-03-02T15:06:31;2.27;;;2.07;;